Time;durP1;ratioP1;P1;durP2;ratioP2;P2;SDS_P1;SDS_P2;PMS_P1;PMS_P2;Temp;Humidity;BMP_temperature;BMP_pressure;BME280_temperature;BME280_humidity;BME280_pressure;Samples;Min_cycle;Max_cycle;Signal;HPM_P1;HPM_P2
2020/12/23 00:01:03;;;;;;;16.73;10.73;;;;;;;6.89;89.68;98881.32;124848;1100;65543;-88
2020/12/23 00:03:30;;;;;;;12.87;9.20;;;;;;;6.88;89.88;98883.13;124791;1101;65208;-88
2020/12/23 00:05:56;;;;;;;12.25;10.30;;;;;;;6.88;89.76;98884.92;124944;1098;65246;-87
2020/12/23 00:08:22;;;;;;;13.87;9.50;;;;;;;6.87;89.91;98881.39;124734;1100;65287;-88
2020/12/23 00:10:49;;;;;;;11.63;9.03;;;;;;;6.88;89.51;98883.13;124874;1098;65115;-87
2020/12/23 00:13:15;;;;;;;15.05;10.30;;;;;;;6.87;89.58;98878.74;124788;1100;65207;-88
2020/12/23 00:15:42;;;;;;;18.07;11.73;;;;;;;6.87;89.65;98881.39;124821;1099;65153;-88
2020/12/23 00:18:09;;;;;;;13.93;9.50;;;;;;;6.88;89.35;98880.47;124774;1100;65222;-88
2020/12/23 00:20:35;;;;;;;13.90;9.37;;;;;;;6.90;89.48;98896.27;124810;1100;65130;-88
2020/12/23 00:23:02;;;;;;;11.63;7.97;;;;;;;6.92;89.61;98902.34;124792;1099;65189;-88
2020/12/23 00:25:29;;;;;;;13.30;9.45;;;;;;;6.96;89.69;98904.75;124801;1100;65268;-87
2020/12/23 00:27:55;;;;;;;9.38;7.45;;;;;;;7.01;89.66;98910.66;124800;1100;65131;-88
2020/12/23 00:30:22;;;;;;;9.50;7.10;;;;;;;7.05;89.46;98911.34;124797;1100;65204;-88
2020/12/23 00:32:49;;;;;;;13.57;8.00;;;;;;;7.11;89.44;98920.75;124783;1100;65214;-88
2020/12/23 00:35:15;;;;;;;11.63;8.10;;;;;;;7.17;89.78;98929.24;124771;1100;65156;-88
2020/12/23 00:37:41;;;;;;;11.33;8.07;;;;;;;7.24;89.56;98935.05;124836;1100;65242;-87
2020/12/23 00:40:09;;;;;;;11.40;8.80;;;;;;;7.26;88.95;98930.53;124831;1100;65214;-88
2020/12/23 00:42:35;;;;;;;11.60;8.10;;;;;;;7.27;89.18;98932.27;124796;1100;65239;-88
2020/12/23 00:45:02;;;;;;;11.15;8.95;;;;;;;7.28;89.21;98927.81;124785;1100;65181;-88
2020/12/23 00:47:29;;;;;;;10.23;7.23;;;;;;;7.27;89.04;98932.27;124757;1100;65297;-87
2020/12/23 00:49:55;;;;;;;11.60;10.00;;;;;;;7.30;89.15;98925.94;124802;1100;65150;-88
2020/12/23 00:52:21;;;;;;;9.63;8.40;;;;;;;7.32;89.12;98929.34;124805;1100;65153;-88
2020/12/23 00:54:48;;;;;;;9.83;7.40;;;;;;;7.34;88.90;98930.97;124798;1100;65166;-89
2020/12/23 00:57:14;;;;;;;9.27;7.43;;;;;;;7.38;88.89;98926.37;124808;1100;65303;-88
2020/12/23 00:59:41;;;;;;;8.17;7.03;;;;;;;7.40;88.98;98935.95;124837;1100;65101;-88
2020/12/23 01:02:07;;;;;;;7.80;6.50;;;;;;;7.41;89.32;98934.15;124915;1100;65143;-86
2020/12/23 01:04:34;;;;;;;8.10;7.30;;;;;;;7.44;89.11;98939.28;124782;1100;65555;-87
2020/12/23 01:07:00;;;;;;;7.93;6.60;;;;;;;7.46;88.89;98926.80;124788;1100;65208;-88
2020/12/23 01:09:26;;;;;;;8.67;6.30;;;;;;;7.47;89.15;98934.65;124769;1100;65173;-88
2020/12/23 01:11:53;;;;;;;6.77;6.00;;;;;;;7.48;88.84;98927.58;124810;1100;65137;-88
2020/12/23 01:14:19;;;;;;;6.90;5.90;;;;;;;7.49;88.84;98929.27;124756;1100;65297;-88
2020/12/23 01:16:46;;;;;;;8.00;5.73;;;;;;;7.51;88.97;98927.40;124852;1100;65214;-87
2020/12/23 01:19:13;;;;;;;6.67;5.87;;;;;;;7.50;88.47;98928.33;124766;1100;65268;-87
2020/12/23 01:21:39;;;;;;;5.90;5.30;;;;;;;7.50;88.78;98922.17;124803;1100;65120;-88
2020/12/23 01:24:05;;;;;;;6.20;5.33;;;;;;;7.47;88.73;98923.20;124812;1100;65259;-88
2020/12/23 01:26:32;;;;;;;6.93;6.23;;;;;;;7.46;88.50;98927.65;124779;1100;65236;-88
2020/12/23 01:28:58;;;;;;;6.80;6.10;;;;;;;7.43;88.58;98919.02;124834;1100;65191;-87
2020/12/23 01:31:25;;;;;;;7.30;6.23;;;;;;;7.39;88.48;98920.11;124761;1100;65191;-87
2020/12/23 01:33:51;;;;;;;7.43;6.73;;;;;;;7.37;88.35;98916.69;124786;1100;65240;-87
2020/12/23 01:36:18;;;;;;;6.47;5.70;;;;;;;7.35;88.39;98918.59;124824;1100;65134;-88
2020/12/23 01:38:44;;;;;;;6.97;6.00;;;;;;;7.34;88.38;98906.25;124827;1100;65127;-88
2020/12/23 01:41:10;;;;;;;7.90;5.77;;;;;;;7.31;88.64;98904.63;124787;1100;65156;-87
2020/12/23 01:43:38;;;;;;;7.00;6.30;;;;;;;7.31;88.40;98904.63;124846;1100;65150;-88
2020/12/23 01:46:05;;;;;;;8.50;6.63;;;;;;;7.29;88.52;98900.34;124786;1100;65348;-87
2020/12/23 01:48:32;;;;;;;8.70;6.73;;;;;;;7.24;88.61;98895.30;124792;1100;65291;-88
2020/12/23 01:51:01;;;;;;;7.35;6.20;;;;;;;7.22;88.41;98890.09;124821;1100;65140;-87
2020/12/23 01:53:28;;;;;;;7.93;6.80;;;;;;;7.22;88.39;98910.45;124851;1100;65169;-88
2020/12/23 01:55:57;;;;;;;8.43;6.57;;;;;;;7.21;88.91;98908.72;124865;1101;65130;-88
2020/12/23 01:58:24;;;;;;;6.87;6.17;;;;;;;7.20;88.52;98917.63;124842;1101;65182;-88
2020/12/23 02:00:51;;;;;;;7.73;5.90;;;;;;;7.21;88.83;98911.37;124877;1101;65181;-86
2020/12/23 02:03:20;;;;;;;7.03;6.33;;;;;;;7.20;88.52;98912.32;124853;1101;65661;-87
2020/12/23 02:05:47;;;;;;;7.30;6.50;;;;;;;7.21;88.54;98911.37;124971;1101;65238;-88
2020/12/23 02:08:13;;;;;;;9.83;7.37;;;;;;;7.18;88.70;98915.04;124800;1100;65198;-89
2020/12/23 02:10:40;;;;;;;6.73;6.07;;;;;;;7.16;88.54;98916.94;124900;1101;65235;-88
2020/12/23 02:13:09;;;;;;;7.70;6.40;;;;;;;7.16;88.68;98922.24;124875;1099;65581;-88
2020/12/23 02:15:36;;;;;;;8.85;7.15;;;;;;;7.16;88.71;98921.36;124918;1098;65149;-88
2020/12/23 02:18:03;;;;;;;8.87;6.93;;;;;;;7.14;88.56;98912.66;124794;1101;65143;-88
2020/12/23 02:20:29;;;;;;;10.00;9.00;;;;;;;7.11;88.14;98910.16;124882;1099;65573;-88
2020/12/23 02:22:56;;;;;;;9.30;8.03;;;;;;;7.08;88.42;98905.88;124786;1101;65182;-88
2020/12/23 02:25:22;;;;;;;10.13;8.80;;;;;;;7.06;88.30;98910.42;124804;1101;65201;-88
2020/12/23 02:27:48;;;;;;;11.23;9.57;;;;;;;7.04;88.62;98909.64;124845;1100;65150;-88
2020/12/23 02:30:15;;;;;;;10.58;9.53;;;;;;;7.03;88.85;98913.25;124915;1101;65185;-88
2020/12/23 02:32:42;;;;;;;10.32;9.03;;;;;;;7.02;88.90;98907.06;125151;1098;65173;-88
2020/12/23 02:35:09;;;;;;;8.23;7.43;;;;;;;7.02;88.51;98899.11;124820;1101;65252;-89
2020/12/23 02:37:35;;;;;;;7.87;7.07;;;;;;;7.03;88.39;98903.50;125171;1099;65179;-88
2020/12/23 02:40:04;;;;;;;8.20;7.40;;;;;;;7.04;88.56;98907.84;124792;1101;65214;-88
2020/12/23 02:42:31;;;;;;;8.10;7.40;;;;;;;7.06;88.91;98909.55;124821;1101;65157;-87
2020/12/23 02:44:57;;;;;;;8.60;7.80;;;;;;;7.10;88.78;98904.00;124790;1101;65220;-86
2020/12/23 02:47:24;;;;;;;8.17;7.10;;;;;;;7.14;89.00;98910.02;124804;1100;65210;-86
2020/12/23 02:49:50;;;;;;;8.60;7.70;;;;;;;7.16;88.71;98908.99;124941;1100;65155;-87
2020/12/23 02:52:17;;;;;;;11.48;9.48;;;;;;;7.19;88.72;98913.27;124800;1101;65246;-88
2020/12/23 02:54:43;;;;;;;9.97;8.97;;;;;;;7.22;88.85;98913.95;124777;1098;65221;-88
2020/12/23 02:57:09;;;;;;;9.73;8.13;;;;;;;7.27;88.55;98908.41;124908;1098;65073;-87
2020/12/23 02:59:36;;;;;;;9.07;7.63;;;;;;;7.30;88.50;98910.03;124903;1100;65147;-87
2020/12/23 03:02:03;;;;;;;7.93;7.13;;;;;;;7.33;88.38;98905.41;124947;1099;65176;-87
2020/12/23 03:04:29;;;;;;;8.25;6.10;;;;;;;7.35;88.64;98910.64;124785;1101;65235;-87
2020/12/23 03:06:55;;;;;;;7.97;6.30;;;;;;;7.35;88.52;98919.44;124958;1098;65115;-87
2020/12/23 03:09:22;;;;;;;6.83;6.15;;;;;;;7.36;88.79;98917.64;124871;1101;65134;-88
2020/12/23 03:11:49;;;;;;;7.23;6.53;;;;;;;7.37;88.27;98912.27;124820;1100;65123;-89
2020/12/23 03:14:16;;;;;;;7.60;6.83;;;;;;;7.36;88.24;98907.88;124777;1102;65249;-88
2020/12/23 03:16:43;;;;;;;7.90;6.40;;;;;;;7.37;88.34;98912.27;124808;1100;65246;-88
2020/12/23 03:19:09;;;;;;;7.80;7.10;;;;;;;7.38;88.41;98916.61;124956;1098;65134;-88
2020/12/23 03:21:36;;;;;;;7.50;6.90;;;;;;;7.39;88.35;98931.57;124814;1101;65197;-88
2020/12/23 03:24:02;;;;;;;8.93;8.03;;;;;;;7.41;88.46;98926.20;124819;1100;65297;-88
2020/12/23 03:26:29;;;;;;;10.17;9.00;;;;;;;7.44;88.16;98928.67;124808;1101;65248;-88
2020/12/23 03:28:55;;;;;;;9.80;8.90;;;;;;;7.48;88.62;98920.47;124817;1100;65182;-89
2020/12/23 03:31:22;;;;;;;13.90;11.40;;;;;;;7.53;88.12;98919.34;124900;1099;65070;-88
2020/12/23 03:33:48;;;;;;;14.53;11.83;;;;;;;7.55;88.58;98906.86;124810;1101;65182;-86
2020/12/23 03:36:15;;;;;;;12.33;11.07;;;;;;;7.56;88.22;98896.18;124800;1100;65304;-86
2020/12/23 03:38:41;;;;;;;12.57;11.27;;;;;;;7.57;88.39;98895.22;124887;1100;65207;-89
2020/12/23 03:41:08;;;;;;;13.23;11.93;;;;;;;7.58;88.40;98904.03;124811;1100;65220;-88
2020/12/23 03:43:34;;;;;;;11.97;10.57;;;;;;;7.59;88.49;98913.72;124826;1100;65079;-89
2020/12/23 03:46:01;;;;;;;10.35;9.10;;;;;;;7.61;88.52;98922.42;124818;1100;65253;-89
2020/12/23 03:48:27;;;;;;;10.00;9.00;;;;;;;7.63;87.93;98920.55;124760;1101;65152;-89
2020/12/23 03:50:54;;;;;;;10.23;9.07;;;;;;;7.67;88.22;98917.64;124892;1099;65141;-88
2020/12/23 03:53:21;;;;;;;10.23;8.80;;;;;;;7.69;88.21;98905.16;124869;1099;65236;-88
2020/12/23 03:55:47;;;;;;;9.80;8.90;;;;;;;7.69;88.18;98909.61;124823;1100;65156;-88
2020/12/23 03:58:14;;;;;;;9.10;8.30;;;;;;;7.69;88.07;98909.61;124900;1100;65073;-88
2020/12/23 04:00:40;;;;;;;8.23;7.30;;;;;;;7.72;88.45;98914.73;124905;1100;65213;-87
2020/12/23 04:03:06;;;;;;;8.37;6.87;;;;;;;7.74;87.71;98909.33;124816;1101;65188;-87
2020/12/23 04:05:33;;;;;;;6.45;5.75;;;;;;;7.76;88.14;98912.75;124861;1098;65149;-89
2020/12/23 04:07:59;;;;;;;7.35;6.75;;;;;;;7.81;88.57;98911.55;124948;1100;65137;-88
2020/12/23 04:10:26;;;;;;;8.03;6.37;;;;;;;7.85;88.26;98906.94;124861;1100;65147;-88
2020/12/23 04:12:52;;;;;;;7.13;6.43;;;;;;;7.89;87.76;98905.80;124822;1099;65310;-89
2020/12/23 04:15:19;;;;;;;7.63;6.83;;;;;;;7.94;87.97;98905.55;124916;1099;65262;-89
2020/12/23 04:17:46;;;;;;;7.47;6.77;;;;;;;7.95;87.34;98901.94;124823;1098;65146;-89
2020/12/23 04:20:13;;;;;;;8.30;6.90;;;;;;;7.95;87.95;98894.83;124849;1098;65133;-89
2020/12/23 04:22:39;;;;;;;8.23;7.43;;;;;;;7.92;87.46;98892.35;124777;1101;65128;-90
2020/12/23 04:25:07;;;;;;;9.77;8.63;;;;;;;7.91;87.89;98894.16;124786;1101;65175;-89
2020/12/23 04:27:34;;;;;;;8.77;7.87;;;;;;;7.90;87.52;98903.08;124804;1100;65201;-89
2020/12/23 04:30:03;;;;;;;9.20;8.20;;;;;;;7.90;87.27;98916.34;124799;1101;65536;-89
2020/12/23 04:32:29;;;;;;;8.57;7.50;;;;;;;7.89;87.46;98916.42;124916;1100;65496;-88
2020/12/23 04:34:55;;;;;;;9.50;8.60;;;;;;;7.89;87.58;98916.42;124867;1100;65120;-88
2020/12/23 04:37:22;;;;;;;9.43;8.43;;;;;;;7.90;87.77;98912.84;124823;1098;65239;-88
2020/12/23 04:39:48;;;;;;;11.40;10.20;;;;;;;7.87;87.61;98912.98;124858;1101;65243;-89
2020/12/23 04:42:14;;;;;;;11.40;10.17;;;;;;;7.84;87.09;98916.67;124817;1100;65137;-89
2020/12/23 04:44:41;;;;;;;11.50;10.47;;;;;;;7.83;87.53;98922.08;124901;1099;65070;-87
2020/12/23 04:47:10;;;;;;;10.63;9.23;;;;;;;7.81;87.50;98924.81;124851;1100;65233;-88
2020/12/23 04:49:37;;;;;;;11.57;9.07;;;;;;;7.79;87.63;98925.84;124859;1099;65297;-88
2020/12/23 04:52:07;;;;;;;9.67;8.77;;;;;;;7.77;87.19;98933.91;124797;1101;65195;-89
2020/12/23 04:54:34;;;;;;;12.15;10.88;;;;;;;7.75;87.51;98932.28;124878;1100;65173;-88
2020/12/23 04:57:02;;;;;;;10.73;9.73;;;;;;;7.71;87.90;98926.27;124926;1099;65181;-88
2020/12/23 04:59:29;;;;;;;13.33;11.93;;;;;;;7.66;87.85;98918.59;124861;1100;65508;-88
2020/12/23 05:02:02;;;;;;;14.57;13.07;;;;;;;7.63;88.19;98921.39;124727;1100;65185;-88
2020/12/23 05:04:28;;;;;;;13.25;12.05;;;;;;;7.62;88.16;98930.30;124844;1100;65204;-88
2020/12/23 05:07:06;;;;;;;12.10;10.90;;;;;;;7.61;88.20;98928.61;124860;1100;65121;-88
2020/12/23 05:09:33;;;;;;;14.00;11.20;;;;;;;7.61;88.09;98918.00;124871;1100;65136;-88
2020/12/23 05:12:00;;;;;;;12.43;11.13;;;;;;;7.61;87.88;98918.00;124904;1100;65136;-88
2020/12/23 05:14:28;;;;;;;13.27;11.93;;;;;;;7.61;88.23;98906.50;124831;1099;65070;-88
2020/12/23 05:16:56;;;;;;;14.27;12.87;;;;;;;7.64;88.66;98912.52;124824;1101;65262;-88
2020/12/23 05:19:23;;;;;;;17.40;15.65;;;;;;;7.64;88.26;98909.02;124750;1101;65182;-88
2020/12/23 05:21:50;;;;;;;20.17;18.20;;;;;;;7.64;88.19;98898.41;124811;1100;65298;-88
2020/12/23 05:24:16;;;;;;;18.20;16.40;;;;;;;7.62;88.21;98895.83;124804;1101;65227;-88
2020/12/23 05:26:45;;;;;;;16.93;15.23;;;;;;;7.60;88.45;98892.39;124831;1100;65246;-88
2020/12/23 05:29:13;;;;;;;16.17;14.47;;;;;;;7.62;88.54;98894.97;124867;1101;65163;-88
2020/12/23 05:31:42;;;;;;;14.90;13.50;;;;;;;7.64;88.35;98901.91;124773;1101;65126;-88
2020/12/23 05:34:09;;;;;;;16.33;14.73;;;;;;;7.68;88.71;98900.77;124763;1101;65178;-88
2020/12/23 05:36:40;;;;;;;17.63;15.83;;;;;;;7.73;88.50;98916.44;124807;1101;65140;-88
2020/12/23 05:39:08;;;;;;;18.90;17.00;;;;;;;7.72;88.54;98914.73;124769;1101;65220;-87
2020/12/23 05:41:38;;;;;;;23.27;20.87;;;;;;;7.72;88.82;98905.92;124824;1101;65319;-87
2020/12/23 05:44:16;;;;;;;18.70;16.80;;;;;;;7.72;88.91;98896.17;124793;1101;65149;-87
2020/12/23 05:46:51;;;;;;;17.53;15.73;;;;;;;7.75;88.37;98897.80;124793;1101;65255;-88
2020/12/23 05:49:20;;;;;;;18.90;16.10;;;;;;;7.73;88.91;98889.06;124757;1101;65111;-87
2020/12/23 05:51:47;;;;;;;18.70;16.80;;;;;;;7.77;88.92;98883.50;124817;1101;65210;-88
2020/12/23 05:54:14;;;;;;;19.63;17.73;;;;;;;7.82;88.78;98889.40;124838;1101;65182;-87
2020/12/23 05:56:42;;;;;;;23.53;20.07;;;;;;;7.83;88.68;98887.59;124930;1101;65181;-88
2020/12/23 05:59:08;;;;;;;20.70;18.70;;;;;;;7.85;88.97;98885.72;124798;1101;65188;-88
2020/12/23 06:01:37;;;;;;;21.33;19.03;;;;;;;7.86;88.71;98874.15;124794;1101;65150;-87
2020/12/23 06:04:12;;;;;;;18.90;16.73;;;;;;;7.86;88.62;98885.61;124776;1101;65578;-88
2020/12/23 06:06:43;;;;;;;18.03;16.13;;;;;;;7.81;88.65;98892.12;124813;1101;65325;-86
2020/12/23 06:09:11;;;;;;;19.90;17.80;;;;;;;7.79;88.66;98899.31;124806;1101;65083;-87
2020/12/23 06:11:40;;;;;;;22.85;20.65;;;;;;;7.73;88.52;98897.02;124762;1101;65123;-87
2020/12/23 06:14:10;;;;;;;29.27;26.37;;;;;;;7.73;88.84;98894.36;124837;1101;65189;-86
2020/12/23 06:16:38;;;;;;;46.50;40.43;;;;;;;7.76;88.96;98892.38;124730;1101;65172;-87
2020/12/23 06:19:29;;;;;;;55.23;49.00;;;;;;;7.79;89.04;98896.66;124770;1101;65160;-87
2020/12/23 06:21:58;;;;;;;27.43;24.70;;;;;;;7.79;88.56;98899.31;124813;1101;65623;-86
2020/12/23 06:24:25;;;;;;;20.97;18.77;;;;;;;7.77;88.60;98894.11;124813;1101;65182;-86
2020/12/23 06:26:57;;;;;;;17.55;15.60;;;;;;;7.77;88.65;98898.56;124799;1098;65156;-86
2020/12/23 06:29:29;;;;;;;18.57;16.57;;;;;;;7.77;88.47;98894.11;124806;1101;65150;-87
2020/12/23 06:32:01;;;;;;;34.00;30.60;;;;;;;7.80;88.90;98907.20;124798;1101;65242;-87
2020/12/23 06:34:29;;;;;;;35.70;32.07;;;;;;;7.85;88.81;98905.13;124809;1101;65198;-87
2020/12/23 06:36:57;;;;;;;32.73;29.43;;;;;;;7.86;88.83;98893.56;124867;1100;65721;-88
2020/12/23 06:39:26;;;;;;;28.80;26.00;;;;;;;7.84;88.73;98902.56;124837;1101;65162;-87
2020/12/23 06:41:55;;;;;;;28.45;25.35;;;;;;;7.79;88.70;98902.81;124804;1101;65607;-88
2020/12/23 06:44:22;;;;;;;30.07;26.90;;;;;;;7.85;89.06;98902.48;124800;1101;65556;-88
2020/12/23 06:47:00;;;;;;;34.00;30.57;;;;;;;7.97;89.17;98900.06;124945;1098;65505;-88
2020/12/23 06:49:39;;;;;;;34.43;30.67;;;;;;;7.96;88.55;98912.48;124840;1101;65204;-87
2020/12/23 06:52:21;;;;;;;36.40;32.70;;;;;;;7.89;88.31;98909.30;124842;1100;65188;-88
2020/12/23 06:54:52;;;;;;;34.73;31.03;;;;;;;7.84;88.29;98918.47;124770;1101;65401;-87
2020/12/23 06:57:34;;;;;;;30.03;27.13;;;;;;;7.80;88.48;98925.77;124805;1101;65210;-87
2020/12/23 07:00:11;;;;;;;29.25;26.15;;;;;;;7.76;88.41;98921.56;124855;1101;65168;-87
2020/12/23 07:02:40;;;;;;;29.33;26.17;;;;;;;7.72;88.40;98916.54;124830;1100;65141;-88
2020/12/23 07:05:27;;;;;;;29.77;26.57;;;;;;;7.73;88.42;98926.20;124801;1101;65160;-87
2020/12/23 07:07:56;;;;;;;45.40;37.97;;;;;;;7.77;89.07;98925.95;124691;1101;65179;-88
2020/12/23 07:10:25;;;;;;;48.95;40.45;;;;;;;7.87;89.14;98918.30;124829;1100;65601;-88
2020/12/23 07:12:57;;;;;;;54.00;43.90;;;;;;;7.87;88.55;98913.88;124767;1101;65252;-88
2020/12/23 07:15:35;;;;;;;59.30;49.15;;;;;;;7.90;88.75;98918.99;124847;1101;65147;-88
2020/12/23 07:18:13;;;;;;;51.83;45.33;;;;;;;7.87;88.57;98929.79;124809;1101;65112;-86
2020/12/23 07:20:49;;;;;;;47.85;41.75;;;;;;;7.79;88.81;98937.30;124930;1100;65293;-85
2020/12/23 07:23:20;;;;;;;51.10;43.90;;;;;;;7.75;88.32;98951.70;124939;1099;65236;-85
2020/12/23 07:25:52;;;;;;;64.63;54.00;;;;;;;7.79;89.09;98937.30;124801;1101;65262;-85
2020/12/23 07:28:40;;;;;;;60.83;51.70;;;;;;;7.86;89.01;98935.17;124875;1101;65292;-85
2020/12/23 07:31:10;;;;;;;73.67;62.80;;;;;;;7.82;88.59;98933.62;124816;1101;65169;-84
2020/12/23 07:33:38;;;;;;;81.15;65.40;;;;;;;7.78;88.74;98945.36;124794;1101;65156;-87
2020/12/23 07:36:05;;;;;;;74.50;64.87;;;;;;;7.75;88.65;98948.20;124841;1101;65224;-88
2020/12/23 07:38:33;;;;;;;66.87;58.53;;;;;;;7.83;89.04;98941.50;124777;1101;65243;-88
2020/12/23 07:40:59;;;;;;;62.37;55.53;;;;;;;7.91;89.23;98944.58;124866;1101;65245;-88
2020/12/23 07:43:26;;;;;;;66.20;55.60;;;;;;;7.99;89.31;98946.80;124855;1101;65133;-88
2020/12/23 07:45:53;;;;;;;69.07;57.00;;;;;;;7.98;88.74;98933.60;124763;1101;65143;-87
2020/12/23 07:48:22;;;;;;;68.13;60.67;;;;;;;8.07;89.04;98933.09;124757;1101;65207;-87
2020/12/23 07:50:54;;;;;;;79.00;67.50;;;;;;;8.03;88.50;98939.50;124841;1101;65591;-87
2020/12/23 07:53:31;;;;;;;75.90;66.25;;;;;;;7.99;88.56;98943.30;124924;1101;65144;-88
2020/12/23 07:56:08;;;;;;;71.47;56.13;;;;;;;7.90;88.56;98942.03;124750;1101;65173;-86
2020/12/23 07:58:39;;;;;;;60.33;50.40;;;;;;;7.85;88.43;98947.59;124794;1101;65317;-88
2020/12/23 08:01:08;;;;;;;54.40;44.90;;;;;;;7.84;88.84;98947.66;124783;1101;65249;-88
2020/12/23 08:03:35;;;;;;;48.87;43.52;;;;;;;7.85;88.54;98946.73;124818;1101;65150;-88
2020/12/23 08:06:11;;;;;;;53.83;46.97;;;;;;;7.88;88.83;98954.52;124809;1101;65728;-88
2020/12/23 08:08:41;;;;;;;47.37;42.37;;;;;;;7.93;88.99;98946.30;124859;1101;65216;-88
2020/12/23 08:11:12;;;;;;;58.13;48.50;;;;;;;7.95;88.96;98950.55;124779;1101;65247;-88
2020/12/23 08:13:39;;;;;;;53.33;45.23;;;;;;;8.03;89.18;98947.46;124786;1101;65154;-88
2020/12/23 08:16:07;;;;;;;52.15;46.45;;;;;;;8.14;89.18;98942.41;124987;1102;65233;-89
2020/12/23 08:18:35;;;;;;;55.50;49.60;;;;;;;8.19;89.26;98948.31;124749;1101;65557;-89
2020/12/23 08:21:17;;;;;;;54.77;48.87;;;;;;;8.19;89.05;98950.09;124777;1101;65184;-88
2020/12/23 08:23:48;;;;;;;48.55;43.40;;;;;;;8.13;88.94;98944.19;124762;1101;65233;-88
2020/12/23 08:26:16;;;;;;;47.63;42.17;;;;;;;8.13;89.17;98945.99;124837;1101;65234;-88
2020/12/23 08:28:44;;;;;;;45.43;40.73;;;;;;;8.13;89.01;98943.34;124912;1100;65134;-88
2020/12/23 08:31:14;;;;;;;51.03;45.53;;;;;;;8.15;89.02;98949.42;124846;1101;65147;-89
2020/12/23 08:33:43;;;;;;;52.17;46.57;;;;;;;8.19;88.85;98950.09;125125;1098;65147;-88
2020/12/23 08:36:10;;;;;;;55.37;49.13;;;;;;;8.18;88.73;98946.59;124880;1101;65150;-89
2020/12/23 08:38:38;;;;;;;58.17;51.40;;;;;;;8.13;88.47;98951.30;124813;1101;65294;-88
2020/12/23 08:41:12;;;;;;;55.03;49.13;;;;;;;8.14;88.76;98950.38;124808;1098;65263;-88
2020/12/23 08:43:44;;;;;;;52.97;47.17;;;;;;;8.12;88.75;98950.45;124822;1101;65230;-89
2020/12/23 08:46:11;;;;;;;50.50;45.10;;;;;;;8.14;88.75;98956.53;124872;1098;65251;-89
2020/12/23 08:48:46;;;;;;;49.13;43.73;;;;;;;8.23;88.78;98955.14;124755;1101;65511;-89
2020/12/23 08:51:18;;;;;;;54.60;48.70;;;;;;;8.29;89.00;98943.30;124965;1098;65121;-88
2020/12/23 08:53:44;;;;;;;65.40;58.55;;;;;;;8.34;89.12;98928.81;124853;1101;65146;-87
2020/12/23 08:56:20;;;;;;;78.50;69.90;;;;;;;8.41;89.32;98924.04;124824;1101;65207;-88
2020/12/23 08:58:50;;;;;;;73.87;64.43;;;;;;;8.43;88.43;98921.30;124908;1098;65227;-88
2020/12/23 09:01:23;;;;;;;;;;;;;;;8.41;88.72;98920.53;124808;1101;65150;-88
2020/12/23 09:03:59;;;;;;;44.77;39.87;;;;;;;8.46;89.01;98916.66;124954;1099;65540;-88
2020/12/23 09:06:25;;;;;;;40.00;34.30;;;;;;;8.55;89.15;98921.41;124850;1100;65197;-88
2020/12/23 09:08:52;;;;;;;37.40;33.43;;;;;;;8.66;88.56;98926.10;124794;1101;65140;-89
2020/12/23 09:11:18;;;;;;;43.40;38.80;;;;;;;8.73;88.44;98927.42;124790;1101;65130;-89
2020/12/23 09:13:44;;;;;;;45.35;40.60;;;;;;;8.77;88.80;98920.98;124820;1101;65206;-88
2020/12/23 09:16:17;;;;;;;46.63;41.07;;;;;;;8.79;88.46;98913.78;124907;1100;65222;-88
2020/12/23 09:18:50;;;;;;;40.07;35.77;;;;;;;8.81;88.59;98924.30;124797;1101;65121;-88
2020/12/23 09:21:19;;;;;;;37.15;33.15;;;;;;;8.81;88.35;98918.14;124780;1101;65150;-89
2020/12/23 09:23:45;;;;;;;37.42;33.15;;;;;;;8.82;88.06;98920.71;125205;1098;65086;-88
2020/12/23 09:26:18;;;;;;;34.50;29.87;;;;;;;8.85;87.99;98914.36;124808;1101;65332;-89
2020/12/23 09:28:44;;;;;;;34.13;30.53;;;;;;;8.80;87.78;98917.28;124849;1101;65111;-89
2020/12/23 09:31:13;;;;;;;33.93;30.37;;;;;;;8.73;88.03;98921.25;124798;1101;65195;-88
2020/12/23 09:33:41;;;;;;;41.97;37.43;;;;;;;8.69;88.31;98925.91;124812;1101;65191;-89
2020/12/23 09:36:08;;;;;;;48.77;43.67;;;;;;;8.72;88.70;98930.19;124767;1101;65175;-88
2020/12/23 09:38:35;;;;;;;52.40;46.57;;;;;;;8.71;88.71;98921.33;124768;1101;65281;-88
2020/12/23 09:41:05;;;;;;;44.37;39.53;;;;;;;8.77;88.58;98905.04;124832;1101;65156;-88
2020/12/23 09:43:34;;;;;;;48.60;42.50;;;;;;;8.87;89.02;98901.80;124790;1101;65182;-89
2020/12/23 09:46:05;;;;;;;44.10;37.75;;;;;;;8.96;88.80;98888.81;124793;1101;65150;-89
2020/12/23 09:48:32;;;;;;;43.60;38.83;;;;;;;9.05;88.36;98886.53;124778;1101;65255;-88
2020/12/23 09:50:58;;;;;;;44.60;39.77;;;;;;;9.13;88.84;98887.75;124790;1102;65330;-88
2020/12/23 09:53:26;;;;;;;42.10;37.63;;;;;;;9.16;88.13;98889.36;124842;1101;65192;-88
2020/12/23 09:55:55;;;;;;;42.93;38.43;;;;;;;9.19;88.48;98889.19;124896;1101;65147;-88
2020/12/23 09:58:22;;;;;;;42.33;37.83;;;;;;;9.25;88.54;98887.95;124865;1101;65276;-89
2020/12/23 10:00:51;;;;;;;46.00;41.30;;;;;;;9.26;88.38;98892.30;124791;1101;65130;-89
2020/12/23 10:03:17;;;;;;;44.77;39.77;;;;;;;9.26;88.48;98887.83;124846;1101;65241;-88
2020/12/23 10:05:44;;;;;;;39.63;35.13;;;;;;;9.29;88.04;98889.44;124824;1101;65214;-89
2020/12/23 10:08:10;;;;;;;44.93;38.83;;;;;;;9.29;88.64;98884.97;124772;1101;65149;-89
2020/12/23 10:10:37;;;;;;;51.40;42.03;;;;;;;9.32;88.00;98875.95;124799;1101;65099;-89
2020/12/23 10:13:04;;;;;;;55.37;42.90;;;;;;;9.29;87.81;98866.36;124784;1101;65125;-88
2020/12/23 10:15:30;;;;;;;62.37;47.40;;;;;;;9.33;88.42;98869.70;124803;1101;65322;-88
2020/12/23 10:17:57;;;;;;;65.77;50.77;;;;;;;9.38;88.16;98873.77;124778;1101;65585;-88
2020/12/23 10:20:24;;;;;;;65.03;48.27;;;;;;;9.34;87.76;98877.56;124802;1101;65601;-87
2020/12/23 10:22:50;;;;;;;58.63;43.70;;;;;;;9.33;88.32;98867.89;124809;1101;65076;-87
2020/12/23 10:25:16;;;;;;;56.97;44.20;;;;;;;9.41;87.67;98862.08;124801;1101;65158;-87
2020/12/23 10:27:43;;;;;;;57.57;42.40;;;;;;;9.47;87.44;98860.83;124810;1100;65299;-89
2020/12/23 10:30:10;;;;;;;53.40;41.30;;;;;;;9.50;88.37;98871.27;124870;1100;65198;-89
2020/12/23 10:32:38;;;;;;;54.93;44.45;;;;;;;9.55;87.93;98869.16;124965;1100;65246;-89
2020/12/23 10:35:07;;;;;;;55.90;45.43;;;;;;;9.63;88.16;98873.02;124896;1100;65111;-89
2020/12/23 10:37:35;;;;;;;58.53;47.60;;;;;;;9.66;88.18;98870.19;124845;1100;65134;-89
2020/12/23 10:40:02;;;;;;;59.77;47.10;;;;;;;9.69;88.31;98863.81;124802;1100;65140;-89
2020/12/23 10:42:29;;;;;;;56.73;45.97;;;;;;;9.67;87.77;98871.03;124847;1100;65203;-89
2020/12/23 10:44:56;;;;;;;57.77;46.00;;;;;;;9.61;87.51;98874.95;124821;1100;65175;-89
2020/12/23 10:47:22;;;;;;;56.67;45.10;;;;;;;9.59;87.36;98860.89;124831;1100;65348;-89
2020/12/23 10:49:49;;;;;;;56.57;43.93;;;;;;;9.58;87.83;98864.48;124860;1100;65152;-88
2020/12/23 10:52:15;;;;;;;50.90;42.17;;;;;;;9.59;87.50;98866.20;124810;1100;65300;-89
2020/12/23 10:54:42;;;;;;;55.00;44.55;;;;;;;9.57;87.54;98870.77;124809;1098;65149;-89
2020/12/23 10:57:08;;;;;;;50.80;43.63;;;;;;;9.60;87.93;98856.41;124964;1098;65333;-88
2020/12/23 10:59:35;;;;;;;55.93;45.57;;;;;;;9.66;87.48;98845.36;124966;1099;65136;-88
2020/12/23 11:02:01;;;;;;;50.10;41.40;;;;;;;9.71;87.52;98848.58;124832;1100;65198;-88
2020/12/23 11:04:27;;;;;;;49.47;39.90;;;;;;;9.79;87.36;98845.41;124919;1098;65335;-88
2020/12/23 11:06:54;;;;;;;45.90;37.63;;;;;;;9.84;87.44;98836.16;124944;1100;65253;-88
2020/12/23 11:09:20;;;;;;;46.15;38.38;;;;;;;9.92;87.31;98840.98;124714;1100;65249;-88
2020/12/23 11:11:54;;;;;;;47.33;39.20;;;;;;;10.00;87.02;98840.47;124874;1100;65226;-88
2020/12/23 11:14:21;;;;;;;50.10;40.65;;;;;;;10.02;86.88;98839.41;124984;1100;65076;-89
2020/12/23 11:16:49;;;;;;;54.60;41.47;;;;;;;10.06;87.34;98830.27;124756;1100;65284;-89
2020/12/23 11:19:20;;;;;;;52.20;39.10;;;;;;;10.15;87.15;98836.78;124897;1098;65153;-89
2020/12/23 11:21:47;;;;;;;;;;;;;;;10.15;86.29;98835.93;124869;1100;65176;-89
2020/12/23 11:24:14;;;;;;;45.05;37.90;;;;;;;10.16;86.68;98837.63;124934;1098;65156;-88
2020/12/23 11:26:41;;;;;;;45.60;36.30;;;;;;;10.19;87.16;98834.75;124891;1098;65345;-88